• Join FlightAware (Why Join?)
  • Login
  • US Flag 
07:26PM EDT


 

Airport Tracker/Info


-or-


 

Live Flight TrackerFlight Track Log ✈ N208D ✈ 16-May-2013 ✈ KCDW - KCXY

Flight Track Log - Related Links

Times and Time Zones

All times are in EDT time to prevent confusion due to time zone crossing. See the N208D flight status page for this flight to view local times or setup timezone preferences in your user account.

Time Position Orientation Groundspeed Altitude Reporting Facility
EDT Latitude Longitude Course Direction KTS MPH feet Rate Location/Type
12:07AM 40.7833 -74.5500 246° West 130 150 4,500  Level New York TRACON
12:08AM 40.7667 -74.6000 246° West 145 167 4,500  Level New York TRACON
12:10AM 40.6920 -74.6499 207° Southwest  Level FlightAware Approximate
12:17AM 40.5395 -75.1218 263° West  Level FlightAware Approximate
12:18AM 40.5357 -75.1996 281° West  Level FlightAware Approximate
12:19AM 40.5467 -75.2770 281° West  Level FlightAware Approximate
12:20AM 40.5525 -75.3552 273° West  Level FlightAware Approximate
12:21AM 40.5560 -75.4337 273° West  Level FlightAware Approximate
12:22AM 40.5594 -75.5123 273° West  Level FlightAware Approximate
12:23AM 40.5628 -75.5909 273° West  Level FlightAware Approximate
12:24AM 40.5661 -75.6695 273° West  Level FlightAware Approximate
12:25AM 40.5500 -75.7444 250° West  Level FlightAware Approximate
12:26AM 40.5299 -75.8185 250° West  Level FlightAware Approximate
12:27AM 40.5093 -75.8924 249° West  Level FlightAware Approximate
12:28AM 40.4883 -75.9660 249° West  Level FlightAware Approximate
12:29AM 40.4749 -76.0424 259° West  Level FlightAware Approximate
12:30AM 40.4610 -76.1185 248° West  Level FlightAware Approximate
12:31AM 40.4386 -76.1914 248° West  Level FlightAware Approximate
12:32AM 40.4162 -76.2643 248° West  Level FlightAware Approximate
12:33AM 40.3945 -76.3374 251° West  Level FlightAware Approximate
12:34AM 40.3746 -76.4115 251° West  Level FlightAware Approximate
12:35AM 40.3548 -76.4855 251° West  Level FlightAware Approximate
12:36AM 40.3349 -76.5595 251° West  Level FlightAware Approximate
12:37AM 40.3149 -76.6334 251° West  Level FlightAware Approximate
12:38AM 40.2949 -76.7073 250° West  Level FlightAware Approximate
12:39AM 40.2854 -76.7830 275° West  Level FlightAware Approximate
12:40AM 40.2904 -76.8611 275° West  Level FlightAware Approximate
12:41AM 40.2952 -76.9392 275° West  Level FlightAware Approximate
12:42AM 40.3000 -77.0174 270° West  Level FlightAware Approximate
12:43AM 40.2878 -77.0423 123° Southeast  Level FlightAware Approximate
12:44AM 40.2581 -76.9743 119° Southeast  Level FlightAware Approximate
12:45AM 40.2304 -76.9051 108° East  Level FlightAware Approximate
12:46AM 40.2167 -76.8500 108° East  Level FlightAware Approximate
12:47AM 40.2171 -76.8514 108° East  Level Estimated
12:48AM 40.2167 -76.8500 108° East  Level FlightAware Approximate
12:49AM 40.2171 -76.8514 108° East  Level Estimated
12:50AM 40.2167 -76.8500 108° East  Level FlightAware Approximate
12:51AM 40.2171 -76.8514 108° East  Level Estimated
12:52AM 40.2167 -76.8500 108° East  Level FlightAware Approximate
12:53AM 40.2171 -76.8514 108° East  Level Estimated
12:54AM 40.2167 -76.8500 108° East  Level FlightAware Approximate
12:55AM 40.2171 -76.8514 108° East  Level Estimated
12:56AM 40.2167 -76.8500 108° East  Level FlightAware Approximate
12:57AM 40.2171 -76.8514 108° East  Level Estimated
12:58AM 40.2167 -76.8500 108° East  Level FlightAware Approximate
12:59AM 40.2171 -76.8514 108° East  Level Estimated
01:00AM 40.2167 -76.8500 108° East  Level FlightAware Approximate
01:01AM 40.2171 -76.8514 108° East  Level Estimated
01:02AM 40.2167 -76.8500 108° East  Level FlightAware Approximate
01:03AM 40.2171 -76.8514 108° East  Level Estimated
01:04AM 40.2167 -76.8500 108° East  Level FlightAware Approximate
01:05AM 40.2171 -76.8514 108° East  Level Estimated